Time;durP1;ratioP1;P1;durP2;ratioP2;P2;SDS_P1;SDS_P2;PMS_P1;PMS_P2;Temp;Humidity;BMP_temperature;BMP_pressure;BME280_temperature;BME280_humidity;BME280_pressure;Samples;Min_cycle;Max_cycle;Signal;HPM_P1;HPM_P2
2022/10/31 00:00:07;;;;;;;30.10;22.57;;;9.60;99.90;;;;;;5085929;28;20659;-51
2022/10/31 00:02:34;;;;;;;31.83;20.80;;;9.60;99.90;;;;;;5082418;28;20209;-51
2022/10/31 00:05:01;;;;;;;26.93;19.90;;;9.60;99.90;;;;;;5084069;28;20569;-51
2022/10/31 00:07:28;;;;;;;23.93;20.13;;;9.60;99.90;;;;;;5092240;28;20654;-50
2022/10/31 00:09:55;;;;;;;23.57;20.03;;;9.60;99.90;;;;;;5090655;28;20203;-50
2022/10/31 00:12:24;;;;;;;25.70;19.50;;;9.50;99.90;;;;;;5091900;28;20646;-51
2022/10/31 00:14:51;;;;;;;24.77;20.13;;;9.50;99.90;;;;;;5091560;28;20572;-50
2022/10/31 00:17:18;;;;;;;24.57;17.83;;;9.50;99.90;;;;;;5091344;28;20222;-51
2022/10/31 00:19:45;;;;;;;24.40;17.90;;;9.40;99.90;;;;;;5087692;28;20199;-51
2022/10/31 00:22:12;;;;;;;24.90;17.70;;;9.40;99.90;;;;;;5091996;28;20203;-50
2022/10/31 00:24:39;;;;;;;22.53;18.10;;;9.40;99.90;;;;;;5091559;28;20203;-52
2022/10/31 00:27:06;;;;;;;23.07;17.57;;;9.30;99.90;;;;;;5091983;28;20227;-51
2022/10/31 00:29:34;;;;;;;19.10;16.20;;;9.30;99.90;;;;;;5090611;28;20242;-50
2022/10/31 00:32:01;;;;;;;20.43;16.70;;;9.30;99.90;;;;;;5083143;28;20731;-51
2022/10/31 00:34:28;;;;;;;18.20;16.40;;;9.20;99.90;;;;;;5091361;28;20222;-51
2022/10/31 00:36:55;;;;;;;17.73;15.67;;;9.20;99.90;;;;;;5083382;28;20231;-50
2022/10/31 00:39:22;;;;;;;25.30;22.40;;;9.20;99.90;;;;;;5090393;28;20312;-51
2022/10/31 00:41:49;;;;;;;26.83;22.13;;;9.30;99.90;;;;;;5091758;28;20272;-50
2022/10/31 00:44:18;;;;;;;21.50;19.27;;;9.20;99.90;;;;;;5090490;28;20305;-50
2022/10/31 00:46:47;;;;;;;17.30;15.33;;;9.20;99.90;;;;;;5091395;28;20276;-50
2022/10/31 00:49:14;;;;;;;15.30;13.77;;;9.20;99.90;;;;;;5090374;28;20209;-51
2022/10/31 00:51:41;;;;;;;13.80;12.40;;;9.20;99.90;;;;;;5091302;28;20199;-51
2022/10/31 00:54:10;;;;;;;15.70;14.03;;;9.20;99.90;;;;;;5084883;28;20291;-51
2022/10/31 00:56:37;;;;;;;15.60;14.07;;;9.10;99.90;;;;;;5091301;28;20277;-51
2022/10/31 00:59:04;;;;;;;15.47;13.87;;;9.10;99.90;;;;;;5090445;28;20209;-50
2022/10/31 01:01:31;;;;;;;16.13;14.63;;;9.10;99.90;;;;;;5091371;28;20275;-51
2022/10/31 01:03:59;;;;;;;14.87;13.57;;;9.00;99.90;;;;;;5090840;28;20585;-51
2022/10/31 01:06:27;;;;;;;12.07;11.07;;;8.90;99.90;;;;;;5090999;28;20280;-51
2022/10/31 01:08:53;;;;;;;13.27;12.17;;;8.90;99.90;;;;;;5090254;28;20211;-50
2022/10/31 01:11:22;;;;;;;12.00;10.90;;;8.90;99.90;;;;;;5087616;28;20577;-52
2022/10/31 01:13:52;;;;;;;12.57;11.30;;;8.90;99.90;;;;;;5090479;28;20215;-51
2022/10/31 01:16:21;;;;;;;12.90;11.47;;;8.90;99.90;;;;;;5091005;28;20302;-51
2022/10/31 01:18:49;;;;;;;12.83;11.60;;;8.90;99.90;;;;;;5089906;28;20206;-50
2022/10/31 01:21:19;;;;;;;11.97;10.97;;;8.90;99.90;;;;;;5088841;28;20215;-51
2022/10/31 01:23:46;;;;;;;14.03;12.63;;;8.90;99.90;;;;;;5090818;28;20255;-51
2022/10/31 01:26:16;;;;;;;13.10;11.97;;;8.90;99.90;;;;;;5090891;28;20229;-51
2022/10/31 01:28:47;;;;;;;14.33;11.90;;;8.80;99.90;;;;;;5085474;28;20204;-51
2022/10/31 01:31:15;;;;;;;12.17;11.07;;;8.80;99.90;;;;;;5084278;28;20360;-51
2022/10/31 01:33:42;;;;;;;11.67;10.77;;;8.70;99.90;;;;;;5090503;28;20291;-50
2022/10/31 01:36:18;;;;;;;11.70;10.53;;;8.70;99.90;;;;;;5084297;28;20223;-51
2022/10/31 01:38:46;;;;;;;10.37;9.57;;;8.70;99.90;;;;;;5089674;28;20713;-51
2022/10/31 01:41:14;;;;;;;12.13;10.97;;;8.70;99.90;;;;;;5090786;28;20202;-52
2022/10/31 01:43:48;;;;;;;12.80;11.70;;;8.70;99.90;;;;;;5090516;28;20197;-52
2022/10/31 01:46:18;;;;;;;14.03;12.83;;;8.60;99.90;;;;;;5086440;28;20226;-50
2022/10/31 01:48:46;;;;;;;13.10;12.00;;;8.60;99.90;;;;;;5088562;28;20621;-51
2022/10/31 01:51:14;;;;;;;13.20;11.20;;;8.60;99.90;;;;;;5090855;28;20205;-51
2022/10/31 01:53:44;;;;;;;11.03;10.13;;;8.70;99.90;;;;;;5090228;28;20220;-52
2022/10/31 01:56:13;;;;;;;12.07;10.97;;;8.60;99.90;;;;;;5090561;28;20273;-50
2022/10/31 01:58:40;;;;;;;10.87;9.93;;;8.60;99.90;;;;;;5089691;28;20270;-51
2022/10/31 02:01:07;;;;;;;11.50;10.50;;;8.60;99.90;;;;;;5090707;28;20200;-51
2022/10/31 02:03:35;;;;;;;11.87;10.87;;;8.70;99.90;;;;;;5081506;28;20255;-52
2022/10/31 02:06:04;;;;;;;11.97;10.80;;;8.60;99.90;;;;;;5070200;28;20219;-51
2022/10/31 02:08:33;;;;;;;12.20;11.20;;;8.60;99.90;;;;;;5069966;28;20351;-51
2022/10/31 02:11:02;;;;;;;12.20;11.20;;;8.60;99.90;;;;;;5090168;28;20274;-52
2022/10/31 02:13:30;;;;;;;11.90;10.77;;;8.50;99.90;;;;;;5090417;28;20226;-51
2022/10/31 02:15:59;;;;;;;12.23;11.23;;;8.60;99.90;;;;;;5090183;28;20224;-51
2022/10/31 02:18:29;;;;;;;11.87;10.73;;;8.60;99.90;;;;;;5089046;28;20265;-52
2022/10/31 02:21:03;;;;;;;11.47;10.57;;;8.60;99.90;;;;;;5088106;28;20267;-52
2022/10/31 02:24:06;;;;;;;11.37;10.43;;;8.50;99.90;;;;;;5087234;28;20654;-51
2022/10/31 02:26:55;;;;;;;12.83;11.60;;;8.50;99.90;;;;;;5086191;28;20597;-51
2022/10/31 02:30:06;;;;;;;15.53;12.10;;;8.40;99.90;;;;;;5090132;28;20202;-52
2022/10/31 02:32:55;;;;;;;12.27;11.27;;;8.40;99.90;;;;;;5086413;28;20297;-51
2022/10/31 02:35:40;;;;;;;13.00;11.77;;;8.40;99.90;;;;;;5084100;28;20280;-51
2022/10/31 02:38:20;;;;;;;13.37;12.07;;;8.40;99.90;;;;;;5081806;28;20563;-52
2022/10/31 02:40:54;;;;;;;15.90;11.73;;;8.40;99.90;;;;;;5093431;28;20194;-53
2022/10/31 02:43:27;;;;;;;15.90;11.30;;;8.40;99.90;;;;;;5093651;28;20207;-51
2022/10/31 02:45:59;;;;;;;13.43;12.07;;;8.40;99.90;;;;;;5092304;28;20225;-53
2022/10/31 02:48:29;;;;;;;15.03;11.53;;;8.40;99.90;;;;;;5089062;28;20241;-51
2022/10/31 02:51:00;;;;;;;11.63;10.50;;;8.40;99.90;;;;;;5093889;28;20285;-51
2022/10/31 02:53:27;;;;;;;12.30;11.00;;;8.30;99.90;;;;;;5093462;28;20217;-51
2022/10/31 02:56:00;;;;;;;12.17;10.87;;;8.30;99.90;;;;;;5087501;28;20226;-52
2022/10/31 02:58:29;;;;;;;13.43;12.03;;;8.30;99.90;;;;;;5092311;28;20641;-53
2022/10/31 03:01:21;;;;;;;15.67;11.53;;;8.20;99.90;;;;;;5093464;28;20251;-50
2022/10/31 03:04:08;;;;;;;16.77;12.97;;;8.20;99.90;;;;;;5091980;28;20247;-51
2022/10/31 03:06:40;;;;;;;12.50;11.30;;;8.20;99.90;;;;;;5093426;28;20739;-51
2022/10/31 03:09:18;;;;;;;13.00;11.73;;;8.10;99.90;;;;;;5093814;28;20256;-51
2022/10/31 03:12:06;;;;;;;14.60;12.83;;;8.10;99.90;;;;;;5091353;28;20262;-52
2022/10/31 03:14:40;;;;;;;12.93;11.70;;;8.00;99.90;;;;;;5093155;28;20227;-51
2022/10/31 03:17:11;;;;;;;13.40;12.03;;;8.00;99.90;;;;;;5093649;28;20292;-51
2022/10/31 03:19:43;;;;;;;12.63;11.43;;;8.00;99.90;;;;;;5093518;28;20230;-51
2022/10/31 03:22:17;;;;;;;14.20;12.13;;;8.00;99.90;;;;;;5085882;28;20200;-52
2022/10/31 03:24:45;;;;;;;12.57;11.33;;;8.00;99.90;;;;;;5087649;28;20205;-52
2022/10/31 03:27:16;;;;;;;17.80;12.03;;;8.10;99.90;;;;;;5093499;28;20719;-52
2022/10/31 03:29:45;;;;;;;12.80;11.50;;;8.10;99.90;;;;;;5093538;28;20204;-52
2022/10/31 03:32:17;;;;;;;13.10;11.67;;;8.10;99.90;;;;;;5093519;28;20206;-51
2022/10/31 03:34:47;;;;;;;14.07;12.73;;;8.10;99.90;;;;;;5092911;28;20293;-52
2022/10/31 03:37:17;;;;;;;16.57;12.67;;;8.00;99.90;;;;;;5085455;28;20268;-52
2022/10/31 03:39:47;;;;;;;13.50;12.17;;;8.00;99.90;;;;;;5089749;28;20203;-52
2022/10/31 03:42:17;;;;;;;14.20;12.77;;;8.00;99.90;;;;;;5092696;28;20617;-52
2022/10/31 03:44:48;;;;;;;14.57;11.40;;;8.10;99.90;;;;;;5092885;28;20349;-51
2022/10/31 03:47:15;;;;;;;13.83;11.93;;;8.10;99.90;;;;;;5093015;28;20642;-52
2022/10/31 03:49:42;;;;;;;15.23;13.43;;;8.00;99.90;;;;;;5089183;28;20260;-51
2022/10/31 03:52:20;;;;;;;13.33;11.93;;;8.10;99.90;;;;;;5092822;28;20210;-51
2022/10/31 03:54:52;;;;;;;14.63;11.70;;;8.00;99.90;;;;;;5089528;28;20648;-51
2022/10/31 03:57:25;;;;;;;13.77;12.37;;;8.00;99.90;;;;;;5092482;28;20273;-51
2022/10/31 03:59:55;;;;;;;17.70;13.30;;;7.90;99.90;;;;;;5090192;28;20569;-52
2022/10/31 04:02:27;;;;;;;15.53;11.43;;;7.80;99.90;;;;;;5092615;28;20634;-51
2022/10/31 04:04:54;;;;;;;13.30;11.17;;;7.80;99.90;;;;;;5091252;28;20267;-52
2022/10/31 04:07:26;;;;;;;12.43;11.23;;;7.80;99.90;;;;;;5090140;28;20271;-52
2022/10/31 04:09:54;;;;;;;11.23;10.03;;;7.70;99.90;;;;;;5090925;28;20202;-52
2022/10/31 04:12:23;;;;;;;12.43;10.97;;;7.70;99.90;;;;;;5077915;28;20234;-51
2022/10/31 04:14:53;;;;;;;13.63;10.77;;;7.70;99.90;;;;;;5090113;28;20218;-51
2022/10/31 04:17:23;;;;;;;10.60;9.70;;;7.60;99.90;;;;;;5092132;28;20305;-51
2022/10/31 04:19:50;;;;;;;11.47;10.47;;;7.60;99.90;;;;;;5091995;28;20629;-51
2022/10/31 04:22:17;;;;;;;11.60;10.57;;;7.50;99.90;;;;;;5091885;28;20338;-52
2022/10/31 04:24:45;;;;;;;11.23;10.07;;;7.60;99.90;;;;;;5089313;28;20218;-52
2022/10/31 04:27:12;;;;;;;10.87;9.87;;;7.50;99.90;;;;;;5091443;28;20222;-51
2022/10/31 04:29:39;;;;;;;10.97;9.87;;;7.50;99.90;;;;;;5084683;28;20211;-51
2022/10/31 04:32:06;;;;;;;11.47;10.37;;;7.50;99.90;;;;;;5091668;28;20572;-51
2022/10/31 04:34:33;;;;;;;10.53;9.63;;;7.50;99.90;;;;;;5091486;28;20295;-51
2022/10/31 04:37:00;;;;;;;10.47;9.57;;;7.50;99.90;;;;;;5085207;28;20222;-51
2022/10/31 04:39:27;;;;;;;11.43;10.20;;;7.40;99.90;;;;;;5091486;28;20198;-52
2022/10/31 04:41:55;;;;;;;11.27;10.27;;;7.40;99.90;;;;;;5091585;28;20209;-52
2022/10/31 04:44:22;;;;;;;13.40;11.10;;;7.30;99.90;;;;;;5088897;28;20198;-51
2022/10/31 04:46:49;;;;;;;15.43;12.27;;;7.30;99.90;;;;;;5084926;28;20221;-51
2022/10/31 04:49:16;;;;;;;12.97;11.63;;;7.30;99.90;;;;;;5077435;28;20270;-51
2022/10/31 04:51:43;;;;;;;11.37;10.30;;;7.30;99.90;;;;;;5077513;28;20711;-50
2022/10/31 04:54:13;;;;;;;12.90;11.63;;;7.40;99.90;;;;;;5089373;28;20636;-50
2022/10/31 04:56:40;;;;;;;11.07;10.07;;;7.40;99.90;;;;;;5086994;28;20287;-51
2022/10/31 04:59:12;;;;;;;9.73;9.03;;;7.40;99.90;;;;;;5078117;28;20201;-51
2022/10/31 05:01:39;;;;;;;8.33;7.83;;;7.40;99.90;;;;;;5073327;28;20202;-52
2022/10/31 05:04:06;;;;;;;9.10;8.40;;;7.40;99.90;;;;;;5088876;28;20235;-51
2022/10/31 05:06:33;;;;;;;10.30;9.60;;;7.40;99.90;;;;;;5088485;28;20216;-51
2022/10/31 05:09:00;;;;;;;8.80;8.20;;;7.40;99.90;;;;;;5079272;28;20255;-51
2022/10/31 05:11:27;;;;;;;8.73;8.10;;;7.40;99.90;;;;;;5084773;28;20202;-51
2022/10/31 05:13:54;;;;;;;9.10;8.23;;;7.40;99.90;;;;;;5071564;28;20203;-51
2022/10/31 05:16:22;;;;;;;11.73;8.17;;;7.30;99.90;;;;;;5072454;28;20222;-51
2022/10/31 05:18:49;;;;;;;11.93;8.50;;;7.30;99.90;;;;;;5069746;28;20199;-51
2022/10/31 05:21:16;;;;;;;8.43;7.73;;;7.30;99.90;;;;;;5069622;28;20225;-51
2022/10/31 05:23:43;;;;;;;11.00;8.27;;;7.30;99.90;;;;;;5069509;28;20198;-52
2022/10/31 05:26:10;;;;;;;9.53;8.83;;;7.30;99.90;;;;;;5080150;28;20222;-51
2022/10/31 05:28:37;;;;;;;9.43;8.73;;;7.30;99.90;;;;;;5083255;28;20256;-51
2022/10/31 05:31:04;;;;;;;10.60;9.50;;;7.40;99.90;;;;;;5072978;28;20256;-51
2022/10/31 05:33:32;;;;;;;10.73;9.80;;;7.40;99.90;;;;;;5069258;28;20259;-51
2022/10/31 05:35:59;;;;;;;11.97;10.77;;;7.40;99.90;;;;;;5071793;28;20227;-50
2022/10/31 05:38:26;;;;;;;11.50;10.43;;;7.40;99.90;;;;;;5069417;28;20197;-50
2022/10/31 05:40:57;;;;;;;11.67;10.57;;;7.40;99.90;;;;;;5070941;28;20195;-51
2022/10/31 05:43:24;;;;;;;10.57;9.77;;;7.40;99.90;;;;;;5081525;28;20202;-51
2022/10/31 05:45:53;;;;;;;10.93;10.03;;;7.40;99.90;;;;;;5085122;28;20358;-51
2022/10/31 05:48:20;;;;;;;11.27;10.37;;;7.40;99.90;;;;;;5073208;28;20277;-51
2022/10/31 05:50:50;;;;;;;10.13;9.33;;;7.30;99.90;;;;;;5088775;28;20202;-51
2022/10/31 05:53:17;;;;;;;8.40;7.80;;;7.40;99.90;;;;;;5087018;28;20702;-51
2022/10/31 05:55:44;;;;;;;8.83;7.93;;;7.30;99.90;;;;;;5088059;28;20227;-52
2022/10/31 05:58:12;;;;;;;9.37;8.67;;;7.30;99.90;;;;;;5088436;28;20202;-51
2022/10/31 06:00:40;;;;;;;9.73;8.47;;;7.40;99.90;;;;;;5077563;28;20219;-51
2022/10/31 06:03:09;;;;;;;7.53;7.03;;;7.40;99.90;;;;;;5081647;28;20219;-51
2022/10/31 06:05:36;;;;;;;9.20;8.37;;;7.40;99.90;;;;;;5073670;28;20211;-51
2022/10/31 06:08:05;;;;;;;9.63;8.93;;;7.40;99.90;;;;;;5068197;28;20208;-51
2022/10/31 06:10:32;;;;;;;12.63;11.43;;;7.40;99.90;;;;;;5068129;28;20198;-50
2022/10/31 06:12:59;;;;;;;12.33;11.37;;;7.40;99.90;;;;;;5067965;28;20692;-50
2022/10/31 06:15:26;;;;;;;14.40;12.90;;;7.40;99.90;;;;;;5070603;28;20446;-51
2022/10/31 06:18:00;;;;;;;13.83;12.47;;;7.30;99.90;;;;;;5072353;28;20197;-50
2022/10/31 06:20:28;;;;;;;15.90;14.30;;;7.40;99.90;;;;;;5072823;28;20232;-51
2022/10/31 06:22:55;;;;;;;13.33;12.23;;;7.40;99.90;;;;;;5081183;28;20194;-50
2022/10/31 06:25:23;;;;;;;15.07;11.73;;;7.40;99.90;;;;;;5072805;28;20197;-49
2022/10/31 06:27:50;;;;;;;22.57;12.60;;;7.40;99.90;;;;;;5072854;28;20222;-51
2022/10/31 06:30:18;;;;;;;14.33;12.33;;;7.40;99.90;;;;;;5072928;28;20195;-50
2022/10/31 06:32:44;;;;;;;14.03;12.03;;;7.40;99.90;;;;;;5079206;28;20194;-52
2022/10/31 06:35:11;;;;;;;14.00;12.43;;;7.40;99.90;;;;;;5079689;28;20273;-51
2022/10/31 06:37:39;;;;;;;13.63;12.13;;;7.50;99.90;;;;;;5083517;28;20199;-50
2022/10/31 06:40:07;;;;;;;13.20;11.37;;;7.50;99.90;;;;;;5072871;28;20210;-52
2022/10/31 06:42:36;;;;;;;11.30;10.30;;;7.50;99.90;;;;;;5072774;28;20196;-53
2022/10/31 06:45:03;;;;;;;12.67;11.57;;;7.60;99.90;;;;;;5075065;28;20201;-52
2022/10/31 06:47:30;;;;;;;14.97;12.43;;;7.60;99.90;;;;;;5093452;28;20217;-53
2022/10/31 06:49:57;;;;;;;20.57;14.00;;;7.70;99.90;;;;;;5092060;28;20768;-52
2022/10/31 06:52:24;;;;;;;14.60;12.00;;;7.70;99.90;;;;;;5088325;28;20214;-53
2022/10/31 06:54:51;;;;;;;14.70;13.27;;;7.80;99.90;;;;;;5093048;28;20625;-52
2022/10/31 06:57:18;;;;;;;18.37;13.13;;;7.80;99.90;;;;;;5093384;28;20225;-53
2022/10/31 06:59:46;;;;;;;15.90;12.90;;;7.90;99.90;;;;;;5093191;28;20726;-52
2022/10/31 07:02:13;;;;;;;13.47;12.10;;;8.00;99.90;;;;;;5093278;28;20202;-53
2022/10/31 07:04:40;;;;;;;14.23;12.80;;;8.00;99.90;;;;;;5092827;28;20257;-53
2022/10/31 07:07:07;;;;;;;12.43;11.33;;;8.10;99.90;;;;;;5085116;28;20310;-52
2022/10/31 07:09:34;;;;;;;13.87;12.20;;;8.20;99.90;;;;;;5089042;28;20240;-53
2022/10/31 07:12:01;;;;;;;13.87;12.63;;;8.20;99.90;;;;;;5092839;28;20589;-52
2022/10/31 07:14:28;;;;;;;14.10;12.77;;;8.30;99.90;;;;;;5092398;28;20291;-52
2022/10/31 07:16:56;;;;;;;14.33;12.93;;;8.40;99.90;;;;;;5092828;28;20234;-52
2022/10/31 07:19:23;;;;;;;13.57;12.30;;;8.30;99.90;;;;;;5092917;28;20233;-53
2022/10/31 07:21:50;;;;;;;18.00;13.97;;;8.30;99.90;;;;;;5084234;28;20198;-53
2022/10/31 07:24:17;;;;;;;14.60;13.20;;;8.30;99.90;;;;;;5087694;28;20204;-52
2022/10/31 07:26:46;;;;;;;13.83;12.73;;;8.30;99.90;;;;;;5089704;28;20563;-53
2022/10/31 07:29:15;;;;;;;15.10;13.70;;;8.40;99.90;;;;;;5092924;28;20191;-52
2022/10/31 07:31:43;;;;;;;14.00;12.77;;;8.40;99.90;;;;;;5092649;28;20201;-53
2022/10/31 07:34:15;;;;;;;16.40;15.00;;;8.50;99.90;;;;;;5092296;28;20202;-53
2022/10/31 07:36:42;;;;;;;15.10;13.50;;;8.60;99.90;;;;;;5091473;28;20359;-55
2022/10/31 07:39:13;;;;;;;14.67;13.37;;;8.60;99.90;;;;;;5084991;28;20251;-51
2022/10/31 07:41:40;;;;;;;14.80;13.40;;;8.70;99.90;;;;;;5085768;28;20285;-52
2022/10/31 07:44:07;;;;;;;12.90;11.67;;;8.90;99.90;;;;;;5072671;28;20219;-54
2022/10/31 07:46:34;;;;;;;16.90;13.80;;;9.10;99.90;;;;;;5072683;28;20650;-53
2022/10/31 07:49:01;;;;;;;14.57;13.17;;;9.30;99.90;;;;;;5092308;28;20206;-53
2022/10/31 07:51:30;;;;;;;14.93;12.80;;;9.50;99.90;;;;;;5083164;28;20256;-52
2022/10/31 07:53:57;;;;;;;16.37;11.90;;;9.60;99.90;;;;;;5090039;28;20259;-52
2022/10/31 07:56:23;;;;;;;13.90;10.50;;;9.80;99.90;;;;;;5086918;28;20222;-53
2022/10/31 07:58:50;;;;;;;13.43;10.77;;;10.00;99.90;;;;;;5090011;28;20198;-53
2022/10/31 08:01:17;;;;;;;12.97;9.87;;;10.20;99.90;;;;;;5075683;28;20207;-52
2022/10/31 08:03:44;;;;;;;14.10;9.63;;;10.40;99.90;;;;;;5076100;28;20271;-51
2022/10/31 08:06:11;;;;;;;9.03;8.30;;;10.50;99.90;;;;;;5088916;28;20222;-53
2022/10/31 08:08:40;;;;;;;17.30;10.37;;;10.70;99.90;;;;;;5078623;28;20211;-52
2022/10/31 08:11:07;;;;;;;12.47;10.47;;;10.80;99.90;;;;;;5074718;28;20214;-53
2022/10/31 08:13:34;;;;;;;13.90;10.33;;;10.80;99.90;;;;;;5074857;28;20528;-51
2022/10/31 08:16:03;;;;;;;12.37;9.13;;;11.00;99.90;;;;;;5080389;28;20286;-53
2022/10/31 08:18:31;;;;;;;20.70;10.57;;;10.90;99.90;;;;;;5070615;28;20203;-52
2022/10/31 08:20:58;;;;;;;10.77;8.90;;;11.00;99.90;;;;;;5075953;28;20292;-52
2022/10/31 08:23:25;;;;;;;13.50;8.50;;;11.00;99.90;;;;;;5076488;28;20234;-52
2022/10/31 08:25:53;;;;;;;10.93;9.33;;;10.90;99.90;;;;;;5074184;28;20219;-51
2022/10/31 08:28:20;;;;;;;13.60;10.63;;;10.80;99.90;;;;;;5070736;28;20286;-52
2022/10/31 08:30:47;;;;;;;11.73;10.10;;;10.80;99.90;;;;;;5070347;28;20203;-53
2022/10/31 08:33:16;;;;;;;13.10;10.33;;;10.80;99.90;;;;;;5081457;28;20206;-53
2022/10/31 08:35:43;;;;;;;13.13;9.90;;;10.70;99.90;;;;;;5081256;28;20250;-53
2022/10/31 08:38:12;;;;;;;10.20;9.17;;;10.80;99.90;;;;;;5075593;28;20274;-53
2022/10/31 08:40:39;;;;;;;10.73;9.63;;;10.90;99.90;;;;;;5070322;28;20200;-52
2022/10/31 08:43:12;;;;;;;11.40;9.07;;;10.90;99.90;;;;;;5069976;28;20191;-53
2022/10/31 08:45:39;;;;;;;12.10;9.47;;;10.90;99.90;;;;;;5070079;28;20220;-52
2022/10/31 08:48:10;;;;;;;10.70;8.67;;;10.90;99.90;;;;;;5070296;28;20250;-53
2022/10/31 08:50:38;;;;;;;9.37;8.57;;;11.10;99.90;;;;;;5076286;28;20277;-53
2022/10/31 08:53:07;;;;;;;13.90;9.93;;;11.20;99.90;;;;;;5080247;28;20279;-53
2022/10/31 08:55:35;;;;;;;11.60;10.50;;;11.20;99.90;;;;;;5082644;28;20667;-54
2022/10/31 08:58:03;;;;;;;13.13;10.47;;;11.20;99.90;;;;;;5070546;28;20295;-54
2022/10/31 09:00:32;;;;;;;11.70;10.23;;;11.20;99.90;;;;;;5088879;28;20192;-53
2022/10/31 09:03:00;;;;;;;24.33;11.20;;;11.30;99.90;;;;;;5089496;28;20203;-56
2022/10/31 09:05:28;;;;;;;14.47;11.80;;;11.40;99.90;;;;;;5074025;28;20257;-51
2022/10/31 09:07:57;;;;;;;15.20;11.97;;;11.50;99.90;;;;;;5071721;28;20201;-52
2022/10/31 09:10:25;;;;;;;14.07;12.07;;;11.60;99.90;;;;;;5070370;28;20191;-54
2022/10/31 09:12:56;;;;;;;23.70;18.27;;;11.70;99.90;;;;;;5070497;28;20328;-53
2022/10/31 09:15:23;;;;;;;23.53;18.37;;;11.80;99.90;;;;;;5070023;28;20249;-53
2022/10/31 09:17:51;;;;;;;22.57;15.80;;;12.00;99.90;;;;;;5087325;28;20683;-53
2022/10/31 09:20:19;;;;;;;18.13;13.40;;;12.00;99.90;;;;;;5083339;28;20264;-52
2022/10/31 09:22:46;;;;;;;22.23;15.20;;;12.10;99.90;;;;;;5087765;28;20282;-52
2022/10/31 09:25:13;;;;;;;17.27;14.03;;;12.10;99.90;;;;;;5086644;28;20203;-54
2022/10/31 09:27:40;;;;;;;19.63;15.67;;;12.10;99.90;;;;;;5081800;28;20203;-52
2022/10/31 09:30:08;;;;;;;28.77;17.50;;;12.20;99.90;;;;;;5086524;28;20201;-54
2022/10/31 09:32:35;;;;;;;22.67;16.17;;;12.30;99.90;;;;;;5082374;28;20248;-53
2022/10/31 09:35:04;;;;;;;21.73;15.77;;;12.40;99.90;;;;;;5076858;28;20201;-52
2022/10/31 09:37:31;;;;;;;28.90;17.47;;;12.50;99.90;;;;;;5082985;28;20692;-52
2022/10/31 09:39:58;;;;;;;24.50;17.33;;;12.60;99.90;;;;;;5081676;28;20212;-53
2022/10/31 09:42:50;;;;;;;24.60;16.93;;;12.50;99.90;;;;;;5085211;28;20358;-52
2022/10/31 09:45:23;;;;;;;23.27;18.17;;;12.70;99.90;;;;;;5075624;28;20329;-52
2022/10/31 09:48:03;;;;;;;24.67;17.27;;;12.80;99.90;;;;;;5088499;28;20203;-56
2022/10/31 09:50:39;;;;;;;25.07;17.67;;;13.00;99.90;;;;;;5080455;28;20576;-53
2022/10/31 09:53:11;;;;;;;28.67;17.80;;;13.20;99.90;;;;;;5085715;28;20687;-53
2022/10/31 09:55:42;;;;;;;26.33;19.17;;;13.40;99.90;;;;;;5072746;28;20297;-53
2022/10/31 09:58:14;;;;;;;27.20;18.17;;;13.50;99.90;;;;;;5087523;28;20210;-53
2022/10/31 10:00:41;;;;;;;18.47;15.07;;;13.50;99.90;;;;;;5087033;28;20201;-53
2022/10/31 10:03:17;;;;;;;20.17;16.20;;;13.60;99.90;;;;;;5087736;28;20211;-52
2022/10/31 10:05:53;;;;;;;23.63;17.10;;;13.60;99.90;;;;;;5087283;28;20945;-53
2022/10/31 10:08:24;;;;;;;21.17;16.63;;;13.70;99.90;;;;;;5074636;28;20204;-55
2022/10/31 10:10:54;;;;;;;23.27;17.13;;;13.80;99.90;;;;;;5086064;28;20256;-52
2022/10/31 10:13:41;;;;;;;20.50;17.37;;;13.60;99.90;;;;;;5083872;28;20197;-52
2022/10/31 10:16:22;;;;;;;18.10;14.30;;;13.50;99.90;;;;;;5070505;28;20216;-53
2022/10/31 10:19:01;;;;;;;16.87;15.17;;;13.50;99.90;;;;;;5080554;28;20202;-53
2022/10/31 10:21:42;;;;;;;20.03;16.10;;;13.60;99.90;;;;;;5089397;28;20257;-52
2022/10/31 10:24:29;;;;;;;23.07;14.30;;;13.70;99.90;;;;;;5081101;28;20563;-52
2022/10/31 10:27:06;;;;;;;23.00;15.60;;;13.90;99.90;;;;;;5090068;28;20591;-52
2022/10/31 10:29:38;;;;;;;19.80;15.03;;;13.70;99.90;;;;;;5090371;28;20211;-51
2022/10/31 10:32:12;;;;;;;21.93;15.47;;;13.60;99.90;;;;;;5085440;28;20585;-52
2022/10/31 10:34:46;;;;;;;22.67;15.77;;;13.80;99.90;;;;;;5069168;28;20194;-53
2022/10/31 10:37:24;;;;;;;17.63;14.77;;;13.90;99.90;;;;;;5069105;28;20213;-53
2022/10/31 10:39:55;;;;;;;14.50;12.97;;;14.10;99.90;;;;;;5069468;28;20249;-53
2022/10/31 10:48:09;;;;;;;20.87;15.60;;;14.20;99.90;;;;;;5083514;28;20236;-53
2022/10/31 10:50:42;;;;;;;17.77;15.10;;;14.20;99.90;;;;;;5069684;28;20203;-52
2022/10/31 10:53:31;;;;;;;19.20;14.50;;;14.20;99.90;;;;;;5069023;28;20273;-54
2022/10/31 10:56:07;;;;;;;18.57;15.10;;;14.10;99.90;;;;;;5068155;28;20223;-51
2022/10/31 10:58:36;;;;;;;20.33;15.03;;;14.20;99.90;;;;;;5071565;28;20204;-53
2022/10/31 11:01:09;;;;;;;18.90;14.07;;;14.20;99.90;;;;;;5083006;28;20196;-53
2022/10/31 11:03:37;;;;;;;19.67;13.90;;;14.30;99.90;;;;;;5081593;28;20221;-53
2022/10/31 11:06:04;;;;;;;17.00;13.57;;;14.50;99.90;;;;;;5091359;28;20227;-53
2022/10/31 11:08:34;;;;;;;18.40;14.10;;;14.50;99.90;;;;;;5087812;28;20334;-54
2022/10/31 11:11:04;;;;;;;21.03;12.93;;;14.50;99.90;;;;;;5073518;28;20671;-53
2022/10/31 11:13:32;;;;;;;16.43;13.00;;;14.40;99.90;;;;;;5072571;28;20197;-56
2022/10/31 11:16:03;;;;;;;13.67;12.30;;;14.50;99.90;;;;;;5077115;28;20231;-53
2022/10/31 11:18:32;;;;;;;15.43;11.23;;;14.70;99.90;;;;;;5072412;28;20230;-53
2022/10/31 11:21:02;;;;;;;18.17;12.93;;;14.60;99.90;;;;;;5092225;28;20253;-55
2022/10/31 11:23:30;;;;;;;15.57;11.23;;;14.60;99.90;;;;;;5093264;28;20211;-52
2022/10/31 11:26:00;;;;;;;13.40;12.00;;;14.60;99.90;;;;;;5089346;28;20273;-52
2022/10/31 11:28:30;;;;;;;13.73;11.27;;;14.60;99.90;;;;;;5084227;28;20229;-53
2022/10/31 11:30:59;;;;;;;18.33;13.00;;;14.60;99.90;;;;;;5087803;28;20235;-51
2022/10/31 11:33:32;;;;;;;14.10;12.47;;;14.60;99.90;;;;;;5087422;28;20201;-53
2022/10/31 11:35:59;;;;;;;13.60;11.47;;;14.60;99.90;;;;;;5091121;28;20288;-53
2022/10/31 11:38:33;;;;;;;14.87;12.70;;;14.50;99.90;;;;;;5093440;28;20200;-52
2022/10/31 11:41:10;;;;;;;17.37;13.40;;;14.30;99.90;;;;;;5080292;28;20565;-55
2022/10/31 11:43:38;;;;;;;14.97;12.03;;;14.00;99.90;;;;;;5090424;28;20196;-52
2022/10/31 11:46:11;;;;;;;17.30;13.57;;;13.90;99.90;;;;;;5073106;28;20221;-53
2022/10/31 11:48:38;;;;;;;18.83;12.87;;;13.90;99.90;;;;;;5073603;28;20201;-54
2022/10/31 11:51:05;;;;;;;18.30;12.20;;;13.80;99.90;;;;;;5060519;22;20706;-50
2022/10/31 11:53:35;;;;;;;16.87;12.70;;;13.60;99.90;;;;;;5014914;28;20230;-52
2022/10/31 11:56:13;;;;;;;15.17;13.50;;;13.60;99.90;;;;;;5016362;28;20371;-49
2022/10/31 11:58:41;;;;;;;17.23;11.83;;;13.60;99.90;;;;;;5032743;28;20194;-48
2022/10/31 12:01:25;;;;;;;14.13;12.33;;;13.60;99.90;;;;;;5032375;28;20280;-50
2022/10/31 12:04:03;;;;;;;13.63;12.00;;;13.60;99.90;;;;;;5032496;28;20199;-49
2022/10/31 12:06:33;;;;;;;17.93;13.63;;;13.70;99.90;;;;;;5010190;28;20199;-49
2022/10/31 12:09:01;;;;;;;14.00;12.60;;;13.80;99.90;;;;;;5014357;28;20203;-49
2022/10/31 12:11:40;;;;;;;15.60;12.77;;;13.80;99.90;;;;;;5032203;28;20223;-49
2022/10/31 12:14:18;;;;;;;14.53;12.80;;;13.90;99.90;;;;;;5020953;28;20256;-49
2022/10/31 12:16:51;;;;;;;13.97;12.60;;;13.80;99.90;;;;;;5010260;28;20215;-49
2022/10/31 12:19:33;;;;;;;17.10;13.20;;;13.90;99.90;;;;;;5013827;28;20199;-49
2022/10/31 12:22:09;;;;;;;14.27;11.90;;;13.90;99.90;;;;;;5012370;28;20257;-49
2022/10/31 12:24:57;;;;;;;14.43;12.73;;;14.00;99.90;;;;;;5011852;28;20731;-48
2022/10/31 12:27:39;;;;;;;14.10;12.60;;;13.90;99.90;;;;;;5014108;28;20213;-50
2022/10/31 12:30:18;;;;;;;14.67;12.83;;;14.00;99.90;;;;;;5008590;28;20259;-49
2022/10/31 12:32:58;;;;;;;15.37;13.53;;;14.00;99.90;;;;;;5010021;28;20199;-49
2022/10/31 12:35:35;;;;;;;14.23;12.83;;;14.10;99.90;;;;;;5013239;28;20195;-49
2022/10/31 12:38:16;;;;;;;15.45;13.85;;;14.20;99.90;;;;;;5008411;28;20582;-50
2022/10/31 12:41:13;;;;;;;14.20;12.63;;;14.40;99.90;;;;;;5010882;28;20226;-49
2022/10/31 12:43:47;;;;;;;13.87;12.33;;;14.40;99.90;;;;;;5010001;28;20253;-49
2022/10/31 12:46:23;;;;;;;16.13;13.10;;;14.60;99.90;;;;;;5012889;28;20604;-50
2022/10/31 12:49:11;;;;;;;17.93;13.07;;;14.60;99.90;;;;;;5020957;28;20248;-50
2022/10/31 12:51:46;;;;;;;14.17;12.10;;;14.50;99.90;;;;;;5031415;28;20309;-49
2022/10/31 12:54:32;;;;;;;15.60;13.13;;;14.50;99.90;;;;;;5031270;28;20193;-50
2022/10/31 12:57:10;;;;;;;16.60;12.70;;;14.40;99.90;;;;;;5018904;28;20727;-49